createdAt,value
2019-03-22T00:00:20.140Z,96.40
2019-03-22T00:02:49.158Z,96.30
2019-03-22T00:05:18.119Z,96.30
2019-03-22T00:07:48.626Z,96.30
2019-03-22T00:10:17.786Z,96.30
2019-03-22T00:12:46.819Z,96.30
2019-03-22T00:15:15.838Z,96.30
2019-03-22T00:17:44.811Z,96.30
2019-03-22T00:20:13.887Z,96.60
2019-03-22T00:22:42.940Z,96.40
2019-03-22T00:25:11.940Z,96.30
2019-03-22T00:27:40.923Z,96.20
2019-03-22T00:30:11.699Z,96.30
2019-03-22T00:32:40.748Z,96.40
2019-03-22T00:35:09.746Z,96.50
2019-03-22T00:37:38.787Z,96.60
2019-03-22T00:40:09.483Z,96.60
2019-03-22T00:42:38.457Z,96.60
2019-03-22T00:45:08.851Z,96.60
2019-03-22T00:47:37.927Z,96.50
2019-03-22T00:50:08.794Z,96.60
2019-03-22T00:52:37.739Z,96.60
2019-03-22T00:55:07.268Z,96.40
2019-03-22T00:57:36.268Z,96.50
2019-03-22T01:00:13.652Z,96.70
2019-03-22T01:02:42.747Z,96.90
2019-03-22T01:05:11.963Z,97.00
2019-03-22T01:07:40.907Z,97.00
2019-03-22T01:10:14.077Z,97.10
2019-03-22T01:12:43.160Z,97.10
2019-03-22T01:15:13.578Z,96.90
2019-03-22T01:17:43.082Z,96.90
2019-03-22T01:20:12.988Z,96.90
2019-03-22T01:22:41.986Z,96.80
2019-03-22T01:25:11.894Z,96.70
2019-03-22T01:27:41.532Z,96.70
2019-03-22T01:30:14.038Z,96.60
2019-03-22T01:32:43.137Z,96.50
2019-03-22T01:35:12.936Z,96.50
2019-03-22T01:37:42.020Z,96.60
2019-03-22T01:40:12.434Z,96.60
2019-03-22T01:42:41.442Z,96.60
2019-03-22T01:45:13.024Z,96.70
2019-03-22T01:47:41.956Z,96.70
2019-03-22T01:50:15.750Z,96.80
2019-03-22T01:52:44.688Z,96.90
2019-03-22T01:55:13.795Z,96.90
2019-03-22T01:57:52.485Z,96.90
2019-03-22T02:00:15.636Z,97.00
2019-03-22T02:02:44.653Z,97.10
2019-03-22T02:05:14.749Z,97.20
2019-03-22T02:07:44.220Z,97.20
2019-03-22T02:10:13.616Z,97.20
2019-03-22T02:12:42.615Z,97.20
2019-03-22T02:15:15.733Z,97.30
2019-03-22T02:17:44.920Z,97.50
2019-03-22T02:20:15.651Z,97.10
2019-03-22T02:22:44.799Z,97.20
2019-03-22T02:25:14.799Z,97.40
2019-03-22T02:27:44.019Z,97.60
2019-03-22T02:30:17.765Z,97.60
2019-03-22T02:32:46.757Z,97.80
2019-03-22T02:35:28.442Z,97.80
2019-03-22T02:37:46.417Z,97.70
2019-03-22T02:40:15.543Z,97.70
2019-03-22T02:42:44.647Z,97.60
2019-03-22T02:45:15.068Z,97.60
2019-03-22T02:47:44.220Z,97.80
2019-03-22T02:50:18.685Z,97.40
2019-03-22T02:52:45.799Z,97.30
2019-03-22T02:55:14.868Z,97.20
2019-03-22T02:57:43.917Z,97.30
2019-03-22T03:00:17.967Z,97.30
2019-03-22T03:02:47.023Z,97.40
2019-03-22T03:05:16.301Z,97.40
2019-03-22T03:07:45.465Z,97.40
2019-03-22T03:10:15.941Z,97.40
2019-03-22T03:12:45.707Z,97.40
2019-03-22T03:15:18.649Z,97.40
2019-03-22T03:17:48.027Z,97.50
2019-03-22T03:20:18.118Z,97.40
2019-03-22T03:22:47.508Z,97.50
2019-03-22T03:25:16.865Z,97.70
2019-03-22T03:27:45.935Z,97.70
2019-03-22T03:30:19.324Z,97.80
2019-03-22T03:32:48.485Z,97.80
2019-03-22T03:35:17.917Z,97.80
2019-03-22T03:37:46.948Z,97.80
2019-03-22T03:40:16.190Z,97.80
2019-03-22T03:42:45.399Z,97.70
2019-03-22T03:45:34.123Z,97.80
2019-03-22T03:48:08.534Z,97.80
2019-03-22T03:50:38.095Z,97.80
2019-03-22T03:53:07.406Z,97.80
2019-03-22T03:55:36.500Z,97.70
2019-03-22T03:58:06.040Z,97.80
2019-03-22T04:00:35.191Z,98.00
2019-03-22T04:03:04.280Z,98.20
2019-03-22T04:05:33.350Z,98.60
2019-03-22T04:08:02.378Z,98.70
2019-03-22T04:10:31.403Z,98.70
2019-03-22T04:13:00.348Z,98.50
2019-03-22T04:15:29.409Z,98.70
2019-03-22T04:17:58.331Z,98.70
2019-03-22T04:20:27.387Z,98.80
2019-03-22T04:22:56.315Z,98.90
2019-03-22T04:25:25.319Z,98.80
2019-03-22T04:27:54.303Z,98.70
2019-03-22T04:30:23.294Z,98.60
2019-03-22T04:32:52.243Z,98.50
2019-03-22T04:35:21.379Z,98.40
2019-03-22T04:37:50.549Z,98.30
2019-03-22T04:40:24.226Z,98.30
2019-03-22T04:42:53.411Z,98.30
2019-03-22T04:45:24.517Z,98.20
2019-03-22T04:47:56.611Z,98.40
2019-03-22T04:50:27.374Z,98.80
2019-03-22T04:52:57.464Z,98.60
2019-03-22T04:55:26.540Z,98.60
2019-03-22T04:57:56.164Z,98.70
2019-03-22T05:00:26.033Z,98.70
2019-03-22T05:02:55.425Z,98.60
2019-03-22T05:05:25.499Z,98.70
2019-03-22T05:07:54.603Z,98.80
2019-03-22T05:10:25.191Z,98.70
2019-03-22T05:12:57.225Z,98.80
2019-03-22T05:15:26.506Z,98.80
2019-03-22T05:17:55.620Z,98.80
2019-03-22T05:20:24.918Z,98.90
2019-03-22T05:22:55.834Z,98.90
2019-03-22T05:25:25.831Z,98.90
2019-03-22T05:27:57.672Z,98.90
2019-03-22T05:30:58.506Z,98.90
2019-03-22T05:33:27.488Z,98.90
2019-03-22T05:35:56.478Z,98.90
2019-03-22T05:38:25.478Z,99.10
2019-03-22T05:40:54.419Z,99.30
2019-03-22T05:43:23.393Z,99.30
2019-03-22T05:45:52.361Z,99.30
2019-03-22T05:48:21.343Z,99.10
2019-03-22T05:50:50.314Z,99.10
2019-03-22T05:53:19.302Z,99.00
2019-03-22T05:55:48.346Z,98.90
2019-03-22T05:58:17.327Z,98.90
2019-03-22T06:00:46.274Z,98.80
2019-03-22T06:03:15.236Z,98.80
2019-03-22T06:05:44.164Z,98.70
2019-03-22T06:08:13.156Z,98.70
2019-03-22T06:10:42.102Z,98.60
2019-03-22T06:13:11.090Z,98.60
2019-03-22T06:15:40.067Z,98.60
2019-03-22T06:18:09.069Z,98.50
2019-03-22T06:20:38.046Z,98.40
2019-03-22T06:23:06.987Z,98.30
2019-03-22T06:25:35.957Z,98.20
2019-03-22T06:28:04.973Z,98.10
2019-03-22T06:30:34.034Z,98.00
2019-03-22T06:33:03.030Z,97.90
2019-03-22T06:35:32.030Z,97.80
2019-03-22T06:38:01.023Z,97.80
2019-03-22T06:40:29.998Z,97.70
2019-03-22T06:42:59.174Z,97.60
2019-03-22T06:45:28.137Z,97.40
2019-03-22T06:47:57.064Z,97.20
2019-03-22T06:50:26.046Z,97.20
2019-03-22T06:52:54.975Z,97.20
2019-03-22T06:55:23.947Z,97.00
2019-03-22T06:57:52.887Z,96.90
2019-03-22T07:00:21.855Z,96.80
2019-03-22T07:02:50.794Z,96.50
2019-03-22T07:05:19.770Z,96.40
2019-03-22T07:07:48.739Z,96.20
2019-03-22T07:10:17.659Z,96.00
2019-03-22T07:12:46.643Z,95.80
2019-03-22T07:15:15.651Z,95.60
2019-03-22T07:17:44.710Z,95.50
2019-03-22T07:20:13.997Z,95.50
2019-03-22T07:22:42.967Z,95.40
2019-03-22T07:25:12.320Z,95.20
2019-03-22T07:27:41.288Z,94.80
2019-03-22T07:30:18.874Z,94.50
2019-03-22T07:32:46.823Z,94.20
2019-03-22T07:35:15.787Z,94.10
2019-03-22T07:37:44.760Z,94.00
2019-03-22T07:40:14.031Z,93.80
2019-03-22T07:42:43.003Z,93.30
2019-03-22T07:45:12.496Z,93.10
2019-03-22T07:47:41.466Z,92.90
2019-03-22T07:50:12.158Z,92.50
2019-03-22T07:52:41.129Z,92.30
2019-03-22T07:55:10.213Z,92.10
2019-03-22T07:57:39.271Z,91.70
2019-03-22T08:00:10.522Z,91.50
2019-03-22T08:02:39.643Z,91.40
2019-03-22T08:05:08.844Z,90.80
2019-03-22T08:07:37.842Z,90.40
2019-03-22T08:10:08.420Z,90.00
2019-03-22T08:12:37.582Z,89.40
2019-03-22T08:15:08.550Z,87.70
2019-03-22T08:17:37.688Z,87.30
2019-03-22T08:20:07.286Z,85.50
2019-03-22T08:22:36.393Z,84.50
2019-03-22T08:25:05.608Z,83.90
2019-03-22T08:27:34.625Z,80.40
2019-03-22T08:30:05.499Z,78.40
2019-03-22T08:32:34.542Z,76.60
2019-03-22T08:35:03.636Z,72.70
2019-03-22T08:37:32.584Z,70.40
2019-03-22T08:40:01.570Z,69.10
2019-03-22T08:42:30.641Z,67.20
2019-03-22T08:44:59.673Z,63.80
2019-03-22T08:47:33.752Z,62.10
2019-03-22T08:49:59.279Z,60.20
2019-03-22T08:52:28.224Z,56.60
2019-03-22T08:54:57.251Z,55.90
2019-03-22T08:57:26.237Z,54.00
2019-03-22T08:59:55.273Z,51.20
2019-03-22T09:02:24.357Z,51.80
2019-03-22T09:04:53.325Z,50.90
2019-03-22T09:07:24.420Z,49.60
2019-03-22T09:09:52.951Z,48.10
2019-03-22T09:12:22.034Z,47.40
2019-03-22T09:14:51.102Z,46.90
2019-03-22T09:17:20.814Z,45.20
2019-03-22T09:19:51.177Z,45.00
2019-03-22T09:22:20.371Z,43.50
2019-03-22T09:24:49.450Z,41.60
2019-03-22T09:27:18.529Z,40.40
2019-03-22T09:29:47.611Z,38.90
2019-03-22T09:32:16.588Z,37.20
2019-03-22T09:34:45.532Z,37.00
2019-03-22T09:37:14.537Z,36.40
2019-03-22T09:39:43.644Z,37.60
2019-03-22T09:42:12.648Z,36.30
2019-03-22T09:44:43.850Z,35.80
2019-03-22T09:47:12.310Z,35.00
2019-03-22T09:49:41.343Z,34.50
2019-03-22T09:52:10.365Z,35.30
2019-03-22T09:54:39.378Z,35.50
2019-03-22T09:57:08.406Z,35.20
2019-03-22T09:59:37.487Z,34.60
2019-03-22T10:02:06.451Z,34.70
2019-03-22T10:04:35.543Z,33.90
2019-03-22T10:07:04.599Z,32.70
2019-03-22T10:09:33.571Z,30.30
2019-03-22T10:12:02.679Z,31.30
2019-03-22T10:14:31.803Z,31.50
2019-03-22T10:17:00.965Z,31.90
2019-03-22T10:19:29.917Z,32.30
2019-03-22T10:21:58.949Z,30.90
2019-03-22T10:24:27.914Z,30.00
2019-03-22T10:26:56.941Z,30.00
2019-03-22T10:29:25.911Z,30.80
2019-03-22T10:31:54.872Z,29.90
2019-03-22T10:34:24.148Z,29.50
2019-03-22T10:36:53.163Z,30.00
2019-03-22T10:39:22.127Z,30.00
2019-03-22T10:41:51.057Z,29.60
2019-03-22T10:44:20.054Z,28.90
2019-03-22T10:46:49.030Z,27.90
2019-03-22T10:49:18.059Z,28.20
2019-03-22T10:51:56.731Z,27.90
2019-03-22T10:54:17.733Z,28.40
2019-03-22T10:56:46.739Z,28.20
2019-03-22T10:59:15.719Z,28.50
2019-03-22T11:01:57.579Z,27.70
2019-03-22T11:04:15.338Z,27.10
2019-03-22T11:06:44.289Z,27.30
2019-03-22T11:09:13.332Z,27.00
2019-03-22T11:11:42.415Z,27.30
2019-03-22T11:14:11.421Z,27.10
2019-03-22T11:16:40.432Z,26.80
2019-03-22T11:19:09.405Z,26.70
2019-03-22T11:21:38.425Z,26.60
2019-03-22T11:24:07.390Z,26.00
2019-03-22T11:26:36.478Z,25.80
2019-03-22T11:29:05.627Z,24.70
2019-03-22T11:31:39.699Z,23.50
2019-03-22T11:34:05.291Z,23.80
2019-03-22T11:36:34.329Z,24.20
2019-03-22T11:39:14.841Z,24.50
2019-03-22T11:41:35.466Z,24.30
2019-03-22T11:44:04.549Z,24.10
2019-03-22T11:46:33.579Z,23.20
2019-03-22T11:49:02.583Z,23.20
2019-03-22T11:51:31.829Z,23.30
2019-03-22T11:54:00.777Z,24.00
2019-03-22T11:56:29.734Z,23.20
2019-03-22T11:58:58.661Z,22.90
2019-03-22T12:01:27.629Z,23.80
2019-03-22T12:03:56.550Z,23.10
2019-03-22T12:06:27.302Z,22.80
2019-03-22T12:08:56.163Z,22.80
2019-03-22T12:11:25.122Z,23.30
2019-03-22T12:13:54.164Z,22.60
2019-03-22T12:16:23.126Z,22.70
2019-03-22T12:18:52.065Z,22.30
2019-03-22T12:21:21.129Z,22.30
2019-03-22T12:23:50.059Z,21.70
2019-03-22T12:26:19.031Z,21.40
2019-03-22T12:28:48.031Z,21.60
2019-03-22T12:31:19.476Z,22.20
2019-03-22T12:33:48.572Z,22.50
2019-03-22T12:36:17.500Z,22.50
2019-03-22T12:38:46.521Z,22.50
2019-03-22T12:41:15.458Z,22.10
2019-03-22T12:43:44.435Z,22.20
2019-03-22T12:46:13.444Z,22.30
2019-03-22T12:48:42.407Z,22.30
2019-03-22T12:51:11.390Z,22.40
2019-03-22T12:53:40.389Z,21.80
2019-03-22T12:56:09.303Z,20.80
2019-03-22T12:58:38.272Z,21.60
2019-03-22T13:01:07.362Z,22.40
2019-03-22T13:03:36.348Z,22.50
2019-03-22T13:06:05.836Z,22.70
2019-03-22T13:08:34.784Z,22.50
2019-03-22T13:11:03.794Z,23.20
2019-03-22T13:13:32.784Z,22.60
2019-03-22T13:16:01.722Z,21.80
2019-03-22T13:18:30.668Z,21.60
2019-03-22T13:20:59.605Z,21.60
2019-03-22T13:23:28.574Z,21.60
2019-03-22T13:25:57.505Z,21.70
2019-03-22T13:28:26.533Z,22.00
2019-03-22T13:30:55.470Z,23.20
2019-03-22T13:33:24.423Z,22.90
2019-03-22T13:35:53.383Z,22.70
2019-03-22T13:38:22.326Z,22.20
2019-03-22T13:40:51.296Z,22.20
2019-03-22T13:43:20.242Z,22.10
2019-03-22T13:45:49.233Z,21.90
2019-03-22T13:48:18.166Z,22.10
2019-03-22T13:50:47.269Z,21.90
2019-03-22T13:53:16.208Z,22.10
2019-03-22T13:55:45.191Z,22.30
2019-03-22T13:58:14.300Z,22.30
2019-03-22T14:00:43.334Z,22.80
2019-03-22T14:03:12.354Z,23.00
2019-03-22T14:05:41.474Z,23.70
2019-03-22T14:08:10.406Z,23.70
2019-03-22T14:10:39.436Z,24.00
2019-03-22T14:13:08.449Z,24.50
2019-03-22T14:15:37.459Z,23.60
2019-03-22T14:18:06.456Z,23.10
2019-03-22T14:20:35.554Z,22.50
2019-03-22T14:23:04.811Z,22.60
2019-03-22T14:25:33.788Z,22.80
2019-03-22T14:28:02.856Z,23.10
2019-03-22T14:30:31.890Z,22.80
2019-03-22T14:33:00.827Z,23.20
2019-03-22T14:41:11.052Z,23.10
2019-03-22T14:43:40.325Z,24.20
2019-03-22T14:46:09.287Z,23.70
2019-03-22T14:48:38.302Z,24.20
2019-03-22T14:51:07.290Z,24.00
2019-03-22T14:53:36.220Z,23.90
2019-03-22T14:56:05.361Z,24.20
2019-03-22T14:58:34.556Z,24.50
2019-03-22T15:01:03.817Z,24.80
2019-03-22T15:03:32.737Z,24.60
2019-03-22T15:06:01.779Z,24.40
2019-03-22T15:08:31.903Z,24.20
2019-03-22T15:11:00.831Z,24.40
2019-03-22T15:13:37.134Z,24.40
2019-03-22T15:16:10.539Z,24.70
2019-03-22T15:18:49.990Z,25.00
2019-03-22T15:21:32.387Z,24.90
2019-03-22T15:24:18.100Z,24.60
2019-03-22T15:26:48.743Z,24.40
2019-03-22T15:29:35.950Z,24.40
2019-03-22T15:32:12.511Z,24.60
2019-03-22T15:34:46.115Z,24.70
2019-03-22T15:37:32.280Z,24.80
2019-03-22T15:40:00.723Z,25.50
2019-03-22T15:42:29.745Z,25.40
2019-03-22T15:44:58.810Z,25.10
2019-03-22T15:47:27.841Z,26.00
2019-03-22T15:49:56.844Z,26.10
2019-03-22T15:52:25.938Z,26.00
2019-03-22T15:54:54.915Z,26.00
2019-03-22T15:57:23.919Z,26.30
2019-03-22T15:59:52.996Z,25.80
2019-03-22T16:02:21.923Z,25.70
2019-03-22T16:04:51.075Z,25.90
2019-03-22T16:07:20.071Z,25.70
2019-03-22T16:09:49.166Z,26.20
2019-03-22T16:12:18.110Z,26.70
2019-03-22T16:14:47.166Z,26.60
2019-03-22T16:17:16.104Z,27.00
2019-03-22T16:19:45.055Z,27.60
2019-03-22T16:22:13.997Z,27.80
2019-03-22T16:24:42.950Z,28.30
2019-03-22T16:27:11.883Z,28.60
2019-03-22T16:29:40.842Z,28.70
2019-03-22T16:32:09.840Z,29.50
2019-03-22T16:34:38.793Z,29.70
2019-03-22T16:37:07.795Z,29.90
2019-03-22T16:39:36.743Z,29.90
2019-03-22T16:42:05.758Z,31.00
2019-03-22T16:44:34.715Z,32.10
2019-03-22T16:47:03.722Z,34.20
2019-03-22T16:49:32.679Z,35.70
2019-03-22T16:52:01.666Z,37.50
2019-03-22T16:54:30.613Z,37.70
2019-03-22T16:56:59.575Z,38.90
2019-03-22T16:59:28.516Z,39.40
2019-03-22T17:01:57.480Z,40.20
2019-03-22T17:04:26.442Z,41.00
2019-03-22T17:06:55.487Z,41.50
2019-03-22T17:09:24.470Z,41.70
2019-03-22T17:11:53.442Z,42.50
2019-03-22T17:14:22.447Z,42.70
2019-03-22T17:16:51.430Z,43.60
2019-03-22T17:19:20.363Z,43.60
2019-03-22T17:21:49.407Z,44.50
2019-03-22T17:24:18.339Z,44.80
2019-03-22T17:26:47.313Z,45.20
2019-03-22T17:29:16.318Z,45.50
2019-03-22T17:31:45.289Z,46.00
2019-03-22T17:34:14.681Z,46.60
2019-03-22T17:36:43.745Z,46.70
2019-03-22T17:39:12.688Z,47.00
2019-03-22T17:41:41.623Z,47.40
2019-03-22T17:44:10.596Z,47.70
2019-03-22T17:46:39.566Z,48.10
2019-03-22T17:49:08.511Z,48.60
2019-03-22T17:51:37.462Z,49.40
2019-03-22T17:54:06.451Z,50.00
2019-03-22T17:56:35.390Z,50.20
2019-03-22T17:59:04.427Z,50.80
2019-03-22T18:01:33.371Z,50.90
2019-03-22T18:04:02.391Z,51.60
2019-03-22T18:06:31.334Z,52.50
2019-03-22T18:09:00.290Z,53.00
2019-03-22T18:11:29.235Z,53.60
2019-03-22T18:13:58.241Z,54.30
2019-03-22T18:16:27.279Z,54.70
2019-03-22T18:18:56.239Z,55.30
2019-03-22T18:21:25.183Z,55.60
2019-03-22T18:23:54.202Z,56.00
2019-03-22T18:26:23.125Z,56.00
2019-03-22T18:28:52.201Z,56.50
2019-03-22T18:31:21.123Z,56.90
2019-03-22T18:33:50.063Z,57.40
2019-03-22T18:36:19.034Z,57.50
2019-03-22T18:38:47.979Z,57.80
2019-03-22T18:41:16.959Z,58.30
2019-03-22T18:43:45.895Z,59.30
2019-03-22T18:46:14.914Z,59.30
2019-03-22T18:48:43.856Z,59.50
2019-03-22T18:51:12.831Z,59.70
2019-03-22T18:53:41.799Z,60.20
2019-03-22T18:56:10.778Z,60.40
2019-03-22T18:58:39.710Z,61.00
2019-03-22T19:01:08.732Z,61.50
2019-03-22T19:03:37.681Z,61.90
2019-03-22T19:06:06.680Z,63.00
2019-03-22T19:08:35.623Z,63.70
2019-03-22T19:11:04.699Z,64.60
2019-03-22T19:13:33.660Z,65.30
2019-03-22T19:16:02.706Z,65.80
2019-03-22T19:18:32.787Z,66.90
2019-03-22T19:21:02.191Z,66.80
2019-03-22T19:23:31.137Z,67.80
2019-03-22T19:26:00.089Z,68.40
2019-03-22T19:28:29.060Z,69.00
2019-03-22T19:30:58.066Z,69.80
2019-03-22T19:33:27.025Z,70.90
2019-03-22T19:35:56.111Z,71.50
2019-03-22T19:38:25.074Z,71.80
2019-03-22T19:40:54.035Z,72.60
2019-03-22T19:43:23.021Z,73.40
2019-03-22T19:45:51.971Z,74.20
2019-03-22T19:48:21.039Z,74.70
2019-03-22T19:50:49.996Z,75.70
2019-03-22T19:53:18.964Z,76.10
2019-03-22T19:55:47.991Z,77.30
2019-03-22T19:58:16.969Z,78.00
2019-03-22T20:00:46.111Z,78.40
2019-03-22T20:03:15.089Z,78.00
2019-03-22T20:05:44.047Z,78.30
2019-03-22T20:08:13.945Z,78.30
2019-03-22T20:10:43.086Z,79.00
2019-03-22T20:13:12.084Z,80.00
2019-03-22T20:15:41.090Z,80.10
2019-03-22T20:18:10.080Z,80.50
2019-03-22T20:20:39.099Z,80.10
2019-03-22T20:23:08.096Z,80.90
2019-03-22T20:25:37.091Z,80.90
2019-03-22T20:28:06.098Z,80.80
2019-03-22T20:30:35.152Z,81.30
2019-03-22T20:33:04.080Z,80.90
2019-03-22T20:35:33.087Z,81.60
2019-03-22T20:38:02.090Z,81.50
2019-03-22T20:40:31.051Z,81.60
2019-03-22T20:43:00.086Z,81.60
2019-03-22T20:45:29.048Z,81.80
2019-03-22T20:47:58.003Z,82.00
2019-03-22T20:50:35.422Z,82.10
2019-03-22T20:52:57.642Z,82.40
2019-03-22T20:55:26.618Z,82.60
2019-03-22T20:57:55.564Z,83.00
2019-03-22T21:00:24.541Z,83.00
2019-03-22T21:02:53.540Z,83.40
2019-03-22T21:05:26.774Z,83.70
2019-03-22T21:07:53.263Z,84.00
2019-03-22T21:10:22.227Z,84.50
2019-03-22T21:12:51.181Z,84.80
2019-03-22T21:15:24.595Z,85.40
2019-03-22T21:17:50.895Z,85.40
2019-03-22T21:20:19.880Z,85.50
2019-03-22T21:22:48.891Z,85.80
2019-03-22T21:25:17.838Z,86.30
2019-03-22T21:27:46.809Z,86.50
2019-03-22T21:30:16.206Z,87.20
2019-03-22T21:32:45.945Z,87.20
2019-03-22T21:35:22.305Z,87.50
2019-03-22T21:37:45.802Z,87.80
2019-03-22T21:40:15.016Z,87.80
2019-03-22T21:42:43.992Z,87.80
2019-03-22T21:45:13.453Z,88.00
2019-03-22T21:47:42.425Z,88.10
2019-03-22T21:50:11.435Z,88.00
2019-03-22T21:52:40.402Z,88.20
2019-03-22T21:55:10.090Z,88.40
2019-03-22T21:57:39.047Z,88.50
2019-03-22T22:00:13.260Z,88.40
2019-03-22T22:02:42.363Z,88.40
2019-03-22T22:05:11.446Z,88.50
2019-03-22T22:07:40.422Z,88.80
2019-03-22T22:10:10.391Z,88.80
2019-03-22T22:12:39.443Z,89.00
2019-03-22T22:15:12.619Z,89.10
2019-03-22T22:17:41.634Z,89.20
2019-03-22T22:20:11.628Z,90.00
2019-03-22T22:22:41.211Z,89.50
2019-03-22T22:25:10.499Z,89.70
2019-03-22T22:27:39.591Z,89.50
2019-03-22T22:30:10.684Z,89.60
2019-03-22T22:32:39.791Z,89.90
2019-03-22T22:35:09.215Z,90.00
2019-03-22T22:37:38.140Z,90.10
2019-03-22T22:40:08.349Z,90.10
2019-03-22T22:42:37.404Z,90.20
2019-03-22T22:45:08.703Z,90.20
2019-03-22T22:47:37.702Z,90.30
2019-03-22T22:50:08.996Z,90.30
2019-03-22T22:52:38.067Z,90.30
2019-03-22T22:55:07.515Z,90.40
2019-03-22T22:57:36.440Z,90.40
2019-03-22T23:00:08.508Z,90.50
2019-03-22T23:02:37.448Z,90.60
2019-03-22T23:05:06.925Z,90.60
2019-03-22T23:07:35.931Z,90.70
2019-03-22T23:10:05.859Z,90.80
2019-03-22T23:12:35.008Z,90.80
2019-03-22T23:15:06.129Z,90.90
2019-03-22T23:17:36.026Z,91.10
2019-03-22T23:20:08.335Z,91.20
2019-03-22T23:22:37.253Z,91.40
2019-03-22T23:25:07.067Z,91.60
2019-03-22T23:27:36.819Z,91.60
2019-03-22T23:30:07.935Z,91.80
2019-03-22T23:32:36.927Z,91.80
2019-03-22T23:35:07.556Z,92.00
2019-03-22T23:37:36.498Z,92.10
2019-03-22T23:40:06.166Z,92.20
2019-03-22T23:42:35.136Z,92.10
2019-03-22T23:45:06.803Z,92.30
2019-03-22T23:47:35.774Z,92.50
2019-03-22T23:50:08.155Z,92.50
2019-03-22T23:52:37.172Z,92.40
2019-03-22T23:55:07.035Z,92.50
2019-03-22T23:57:36.059Z,92.40
